sensor_id;sensor_type;location;lat;lon;timestamp;P1;durP1;ratioP1;P2;durP2;ratioP2
13263;SDS011;6700;51.988;7.646;2023-03-01T00:00:02;6.80;;;6.10;;
13263;SDS011;6700;51.988;7.646;2023-03-01T00:02:29;8.47;;;5.93;;
13263;SDS011;6700;51.988;7.646;2023-03-01T00:04:56;6.97;;;6.03;;
13263;SDS011;6700;51.988;7.646;2023-03-01T00:07:23;8.03;;;5.97;;
13263;SDS011;6700;51.988;7.646;2023-03-01T00:09:50;7.97;;;6.57;;
13263;SDS011;6700;51.988;7.646;2023-03-01T00:12:16;10.87;;;6.87;;
13263;SDS011;6700;51.988;7.646;2023-03-01T00:14:43;7.43;;;5.90;;
13263;SDS011;6700;51.988;7.646;2023-03-01T00:17:10;7.13;;;5.93;;
13263;SDS011;6700;51.988;7.646;2023-03-01T00:19:37;10.87;;;6.70;;
13263;SDS011;6700;51.988;7.646;2023-03-01T00:22:03;11.53;;;6.60;;
13263;SDS011;6700;51.988;7.646;2023-03-01T00:24:30;8.97;;;6.67;;
13263;SDS011;6700;51.988;7.646;2023-03-01T00:26:57;7.87;;;6.23;;
13263;SDS011;6700;51.988;7.646;2023-03-01T00:29:24;7.17;;;6.30;;
13263;SDS011;6700;51.988;7.646;2023-03-01T00:31:51;9.27;;;6.33;;
13263;SDS011;6700;51.988;7.646;2023-03-01T00:34:18;10.40;;;6.30;;
13263;SDS011;6700;51.988;7.646;2023-03-01T00:36:45;8.07;;;6.33;;
13263;SDS011;6700;51.988;7.646;2023-03-01T00:39:13;6.70;;;6.00;;
13263;SDS011;6700;51.988;7.646;2023-03-01T00:41:41;8.43;;;5.90;;
13263;SDS011;6700;51.988;7.646;2023-03-01T00:44:08;7.20;;;5.80;;
13263;SDS011;6700;51.988;7.646;2023-03-01T00:46:35;7.73;;;6.67;;
13263;SDS011;6700;51.988;7.646;2023-03-01T00:49:02;8.67;;;6.83;;
13263;SDS011;6700;51.988;7.646;2023-03-01T00:51:30;6.67;;;5.63;;
13263;SDS011;6700;51.988;7.646;2023-03-01T00:53:59;8.43;;;6.47;;
13263;SDS011;6700;51.988;7.646;2023-03-01T00:56:27;8.03;;;6.50;;
13263;SDS011;6700;51.988;7.646;2023-03-01T00:58:55;10.90;;;7.13;;
13263;SDS011;6700;51.988;7.646;2023-03-01T01:01:23;11.67;;;7.07;;
13263;SDS011;6700;51.988;7.646;2023-03-01T01:03:54;8.20;;;6.93;;
13263;SDS011;6700;51.988;7.646;2023-03-01T01:06:28;14.93;;;8.13;;
13263;SDS011;6700;51.988;7.646;2023-03-01T01:09:21;9.97;;;6.43;;
13263;SDS011;6700;51.988;7.646;2023-03-01T01:11:49;12.20;;;6.43;;
13263;SDS011;6700;51.988;7.646;2023-03-01T01:14:17;9.83;;;6.93;;
13263;SDS011;6700;51.988;7.646;2023-03-01T01:16:44;10.53;;;7.30;;
13263;SDS011;6700;51.988;7.646;2023-03-01T01:19:11;11.57;;;7.63;;
13263;SDS011;6700;51.988;7.646;2023-03-01T01:21:39;10.30;;;7.17;;
13263;SDS011;6700;51.988;7.646;2023-03-01T01:24:09;10.07;;;7.83;;
13263;SDS011;6700;51.988;7.646;2023-03-01T01:26:36;9.77;;;7.30;;
13263;SDS011;6700;51.988;7.646;2023-03-01T01:29:04;8.87;;;7.17;;
13263;SDS011;6700;51.988;7.646;2023-03-01T01:31:31;14.70;;;7.20;;
13263;SDS011;6700;51.988;7.646;2023-03-01T01:34:00;9.47;;;7.17;;
13263;SDS011;6700;51.988;7.646;2023-03-01T01:36:27;10.43;;;7.50;;
13263;SDS011;6700;51.988;7.646;2023-03-01T01:38:55;9.07;;;6.63;;
13263;SDS011;6700;51.988;7.646;2023-03-01T01:41:23;8.83;;;6.70;;
13263;SDS011;6700;51.988;7.646;2023-03-01T01:46:40;11.33;;;7.57;;
13263;SDS011;6700;51.988;7.646;2023-03-01T01:49:19;8.83;;;7.63;;
13263;SDS011;6700;51.988;7.646;2023-03-01T01:52:04;9.83;;;6.60;;
13263;SDS011;6700;51.988;7.646;2023-03-01T01:54:40;8.10;;;6.63;;
13263;SDS011;6700;51.988;7.646;2023-03-01T01:57:12;12.00;;;7.17;;
13263;SDS011;6700;51.988;7.646;2023-03-01T01:59:43;8.47;;;7.10;;
13263;SDS011;6700;51.988;7.646;2023-03-01T02:02:13;12.63;;;7.17;;
13263;SDS011;6700;51.988;7.646;2023-03-01T02:04:40;9.83;;;7.17;;
13263;SDS011;6700;51.988;7.646;2023-03-01T02:07:18;9.73;;;6.93;;
13263;SDS011;6700;51.988;7.646;2023-03-01T02:09:48;9.87;;;7.00;;
13263;SDS011;6700;51.988;7.646;2023-03-01T02:12:17;8.83;;;6.60;;
13263;SDS011;6700;51.988;7.646;2023-03-01T02:14:46;10.07;;;6.77;;
13263;SDS011;6700;51.988;7.646;2023-03-01T02:17:13;10.13;;;7.97;;
13263;SDS011;6700;51.988;7.646;2023-03-01T02:19:57;10.53;;;6.87;;
13263;SDS011;6700;51.988;7.646;2023-03-01T02:22:31;9.47;;;7.07;;
13263;SDS011;6700;51.988;7.646;2023-03-01T02:27:31;13.07;;;7.50;;
13263;SDS011;6700;51.988;7.646;2023-03-01T02:30:04;8.23;;;6.97;;
13263;SDS011;6700;51.988;7.646;2023-03-01T02:32:32;10.70;;;7.47;;
13263;SDS011;6700;51.988;7.646;2023-03-01T02:35:00;11.57;;;8.03;;
13263;SDS011;6700;51.988;7.646;2023-03-01T02:37:27;9.57;;;6.30;;
13263;SDS011;6700;51.988;7.646;2023-03-01T02:39:56;8.87;;;6.53;;
13263;SDS011;6700;51.988;7.646;2023-03-01T02:42:30;10.67;;;7.77;;
13263;SDS011;6700;51.988;7.646;2023-03-01T02:45:02;7.67;;;6.77;;
13263;SDS011;6700;51.988;7.646;2023-03-01T02:47:29;9.87;;;6.73;;
13263;SDS011;6700;51.988;7.646;2023-03-01T02:49:55;8.53;;;7.13;;
13263;SDS011;6700;51.988;7.646;2023-03-01T02:54:58;9.07;;;7.30;;
13263;SDS011;6700;51.988;7.646;2023-03-01T02:57:30;10.77;;;7.17;;
13263;SDS011;6700;51.988;7.646;2023-03-01T02:59:59;8.27;;;6.97;;
13263;SDS011;6700;51.988;7.646;2023-03-01T03:02:34;9.63;;;6.80;;
13263;SDS011;6700;51.988;7.646;2023-03-01T03:07:38;11.30;;;7.83;;
13263;SDS011;6700;51.988;7.646;2023-03-01T03:10:07;9.00;;;6.93;;
13263;SDS011;6700;51.988;7.646;2023-03-01T03:12:37;8.53;;;7.03;;
13263;SDS011;6700;51.988;7.646;2023-03-01T03:15:06;11.27;;;6.87;;
13263;SDS011;6700;51.988;7.646;2023-03-01T03:17:36;11.33;;;7.30;;
13263;SDS011;6700;51.988;7.646;2023-03-01T03:20:04;8.23;;;7.43;;
13263;SDS011;6700;51.988;7.646;2023-03-01T03:22:31;7.33;;;6.63;;
13263;SDS011;6700;51.988;7.646;2023-03-01T03:25:00;13.23;;;8.03;;
13263;SDS011;6700;51.988;7.646;2023-03-01T03:27:28;8.73;;;7.43;;
13263;SDS011;6700;51.988;7.646;2023-03-01T03:29:55;11.17;;;7.43;;
13263;SDS011;6700;51.988;7.646;2023-03-01T03:32:21;8.10;;;7.00;;
13263;SDS011;6700;51.988;7.646;2023-03-01T03:34:48;9.33;;;7.40;;
13263;SDS011;6700;51.988;7.646;2023-03-01T03:37:15;8.60;;;6.63;;
13263;SDS011;6700;51.988;7.646;2023-03-01T03:40:05;7.63;;;6.90;;
13263;SDS011;6700;51.988;7.646;2023-03-01T03:42:41;10.20;;;6.77;;
13263;SDS011;6700;51.988;7.646;2023-03-01T03:45:08;12.07;;;6.87;;
13263;SDS011;6700;51.988;7.646;2023-03-01T03:47:35;8.97;;;6.83;;
13263;SDS011;6700;51.988;7.646;2023-03-01T03:50:01;10.33;;;7.70;;
13263;SDS011;6700;51.988;7.646;2023-03-01T03:52:28;12.03;;;8.10;;
13263;SDS011;6700;51.988;7.646;2023-03-01T03:54:55;10.37;;;7.77;;
13263;SDS011;6700;51.988;7.646;2023-03-01T03:57:21;10.97;;;8.27;;
13263;SDS011;6700;51.988;7.646;2023-03-01T03:59:48;12.07;;;8.37;;
13263;SDS011;6700;51.988;7.646;2023-03-01T04:02:15;14.13;;;8.47;;
13263;SDS011;6700;51.988;7.646;2023-03-01T04:04:48;12.20;;;8.93;;
13263;SDS011;6700;51.988;7.646;2023-03-01T04:07:18;10.13;;;7.77;;
13263;SDS011;6700;51.988;7.646;2023-03-01T04:09:45;12.70;;;8.70;;
13263;SDS011;6700;51.988;7.646;2023-03-01T04:12:11;9.67;;;7.70;;
13263;SDS011;6700;51.988;7.646;2023-03-01T04:14:38;10.07;;;7.53;;
13263;SDS011;6700;51.988;7.646;2023-03-01T04:17:05;10.03;;;7.43;;
13263;SDS011;6700;51.988;7.646;2023-03-01T04:19:31;11.60;;;7.97;;
13263;SDS011;6700;51.988;7.646;2023-03-01T04:22:02;9.03;;;6.87;;
13263;SDS011;6700;51.988;7.646;2023-03-01T04:24:35;9.90;;;7.37;;
13263;SDS011;6700;51.988;7.646;2023-03-01T04:27:02;12.13;;;7.87;;
13263;SDS011;6700;51.988;7.646;2023-03-01T04:29:29;11.20;;;8.20;;
13263;SDS011;6700;51.988;7.646;2023-03-01T04:31:55;12.30;;;7.10;;
13263;SDS011;6700;51.988;7.646;2023-03-01T04:34:22;10.73;;;7.07;;
13263;SDS011;6700;51.988;7.646;2023-03-01T04:36:49;9.47;;;7.07;;
13263;SDS011;6700;51.988;7.646;2023-03-01T04:39:16;8.53;;;6.80;;
13263;SDS011;6700;51.988;7.646;2023-03-01T04:41:43;14.30;;;8.33;;
13263;SDS011;6700;51.988;7.646;2023-03-01T04:44:10;9.73;;;7.63;;
13263;SDS011;6700;51.988;7.646;2023-03-01T04:46:36;9.03;;;7.57;;
13263;SDS011;6700;51.988;7.646;2023-03-01T04:49:03;9.57;;;8.13;;
13263;SDS011;6700;51.988;7.646;2023-03-01T04:51:31;9.23;;;7.50;;
13263;SDS011;6700;51.988;7.646;2023-03-01T04:53:58;10.27;;;7.23;;
13263;SDS011;6700;51.988;7.646;2023-03-01T04:56:26;7.13;;;6.17;;
13263;SDS011;6700;51.988;7.646;2023-03-01T04:58:53;11.53;;;7.50;;
13263;SDS011;6700;51.988;7.646;2023-03-01T05:01:21;13.47;;;8.13;;
13263;SDS011;6700;51.988;7.646;2023-03-01T05:03:49;8.30;;;6.90;;
13263;SDS011;6700;51.988;7.646;2023-03-01T05:06:18;12.83;;;7.77;;
13263;SDS011;6700;51.988;7.646;2023-03-01T05:08:46;10.33;;;7.00;;
13263;SDS011;6700;51.988;7.646;2023-03-01T05:11:13;11.77;;;7.57;;
13263;SDS011;6700;51.988;7.646;2023-03-01T05:13:41;11.30;;;7.07;;
13263;SDS011;6700;51.988;7.646;2023-03-01T05:16:08;12.27;;;7.57;;
13263;SDS011;6700;51.988;7.646;2023-03-01T05:18:39;12.40;;;7.40;;
13263;SDS011;6700;51.988;7.646;2023-03-01T05:21:07;8.77;;;7.17;;
13263;SDS011;6700;51.988;7.646;2023-03-01T05:23:39;10.17;;;6.93;;
13263;SDS011;6700;51.988;7.646;2023-03-01T05:26:06;8.87;;;7.10;;
13263;SDS011;6700;51.988;7.646;2023-03-01T05:28:47;8.33;;;7.23;;
13263;SDS011;6700;51.988;7.646;2023-03-01T05:31:14;7.87;;;6.57;;
13263;SDS011;6700;51.988;7.646;2023-03-01T05:33:41;8.23;;;6.70;;
13263;SDS011;6700;51.988;7.646;2023-03-01T05:36:09;8.07;;;6.33;;
13263;SDS011;6700;51.988;7.646;2023-03-01T05:38:36;8.27;;;6.73;;
13263;SDS011;6700;51.988;7.646;2023-03-01T05:41:03;9.67;;;7.57;;
13263;SDS011;6700;51.988;7.646;2023-03-01T05:43:30;11.07;;;7.40;;
13263;SDS011;6700;51.988;7.646;2023-03-01T05:46:00;8.37;;;6.97;;
13263;SDS011;6700;51.988;7.646;2023-03-01T05:48:27;8.37;;;7.43;;
13263;SDS011;6700;51.988;7.646;2023-03-01T05:50:54;8.87;;;6.33;;
13263;SDS011;6700;51.988;7.646;2023-03-01T05:53:21;8.57;;;6.97;;
13263;SDS011;6700;51.988;7.646;2023-03-01T05:55:47;11.57;;;8.20;;
13263;SDS011;6700;51.988;7.646;2023-03-01T05:58:17;9.67;;;7.80;;
13263;SDS011;6700;51.988;7.646;2023-03-01T06:00:46;8.67;;;7.10;;
13263;SDS011;6700;51.988;7.646;2023-03-01T06:03:14;8.97;;;6.60;;
13263;SDS011;6700;51.988;7.646;2023-03-01T06:05:43;15.97;;;7.43;;
13263;SDS011;6700;51.988;7.646;2023-03-01T06:08:11;10.67;;;7.33;;
13263;SDS011;6700;51.988;7.646;2023-03-01T06:10:38;11.47;;;7.53;;
13263;SDS011;6700;51.988;7.646;2023-03-01T06:13:05;12.03;;;7.87;;
13263;SDS011;6700;51.988;7.646;2023-03-01T06:15:32;13.53;;;7.93;;
13263;SDS011;6700;51.988;7.646;2023-03-01T06:17:59;12.23;;;8.33;;
13263;SDS011;6700;51.988;7.646;2023-03-01T06:20:26;11.40;;;7.90;;
13263;SDS011;6700;51.988;7.646;2023-03-01T06:22:54;10.83;;;8.20;;
13263;SDS011;6700;51.988;7.646;2023-03-01T06:25:23;12.47;;;8.60;;
13263;SDS011;6700;51.988;7.646;2023-03-01T06:27:51;12.73;;;8.90;;
13263;SDS011;6700;51.988;7.646;2023-03-01T06:30:21;10.57;;;8.43;;
13263;SDS011;6700;51.988;7.646;2023-03-01T06:32:49;10.93;;;8.87;;
13263;SDS011;6700;51.988;7.646;2023-03-01T06:35:16;12.13;;;8.80;;
13263;SDS011;6700;51.988;7.646;2023-03-01T06:37:45;13.90;;;9.17;;
13263;SDS011;6700;51.988;7.646;2023-03-01T06:40:14;14.57;;;9.43;;
13263;SDS011;6700;51.988;7.646;2023-03-01T06:42:43;15.03;;;8.70;;
13263;SDS011;6700;51.988;7.646;2023-03-01T06:45:15;10.47;;;8.63;;
13263;SDS011;6700;51.988;7.646;2023-03-01T06:47:42;14.17;;;9.00;;
13263;SDS011;6700;51.988;7.646;2023-03-01T06:50:09;14.77;;;8.60;;
13263;SDS011;6700;51.988;7.646;2023-03-01T06:52:37;12.27;;;9.40;;
13263;SDS011;6700;51.988;7.646;2023-03-01T06:55:04;13.50;;;8.83;;
13263;SDS011;6700;51.988;7.646;2023-03-01T06:57:31;11.77;;;8.97;;
13263;SDS011;6700;51.988;7.646;2023-03-01T06:59:59;15.30;;;9.43;;
13263;SDS011;6700;51.988;7.646;2023-03-01T07:02:25;14.13;;;9.57;;
13263;SDS011;6700;51.988;7.646;2023-03-01T07:04:52;10.80;;;8.27;;
13263;SDS011;6700;51.988;7.646;2023-03-01T07:07:19;18.73;;;10.10;;
13263;SDS011;6700;51.988;7.646;2023-03-01T07:09:46;12.33;;;8.70;;
13263;SDS011;6700;51.988;7.646;2023-03-01T07:12:14;16.70;;;8.80;;
13263;SDS011;6700;51.988;7.646;2023-03-01T07:14:41;11.63;;;8.63;;
13263;SDS011;6700;51.988;7.646;2023-03-01T07:17:09;14.70;;;9.20;;
13263;SDS011;6700;51.988;7.646;2023-03-01T07:19:36;17.17;;;9.70;;
13263;SDS011;6700;51.988;7.646;2023-03-01T07:22:03;12.60;;;8.73;;
13263;SDS011;6700;51.988;7.646;2023-03-01T07:24:30;11.03;;;8.63;;
13263;SDS011;6700;51.988;7.646;2023-03-01T07:26:57;13.87;;;8.17;;
13263;SDS011;6700;51.988;7.646;2023-03-01T07:29:24;12.97;;;8.70;;
13263;SDS011;6700;51.988;7.646;2023-03-01T07:31:51;19.70;;;8.90;;
13263;SDS011;6700;51.988;7.646;2023-03-01T07:34:17;13.67;;;8.97;;
13263;SDS011;6700;51.988;7.646;2023-03-01T07:36:44;12.23;;;9.10;;
13263;SDS011;6700;51.988;7.646;2023-03-01T07:39:11;13.23;;;8.73;;
13263;SDS011;6700;51.988;7.646;2023-03-01T07:41:38;12.40;;;8.77;;
13263;SDS011;6700;51.988;7.646;2023-03-01T07:44:05;11.70;;;9.10;;
13263;SDS011;6700;51.988;7.646;2023-03-01T07:46:31;10.60;;;8.50;;
13263;SDS011;6700;51.988;7.646;2023-03-01T07:48:58;14.70;;;8.00;;
13263;SDS011;6700;51.988;7.646;2023-03-01T07:51:25;11.03;;;8.13;;
13263;SDS011;6700;51.988;7.646;2023-03-01T07:53:52;13.70;;;8.33;;
13263;SDS011;6700;51.988;7.646;2023-03-01T07:56:19;13.63;;;8.00;;
13263;SDS011;6700;51.988;7.646;2023-03-01T07:58:47;12.03;;;7.13;;
13263;SDS011;6700;51.988;7.646;2023-03-01T08:01:17;8.60;;;7.73;;
13263;SDS011;6700;51.988;7.646;2023-03-01T08:03:46;11.40;;;7.40;;
13263;SDS011;6700;51.988;7.646;2023-03-01T08:06:14;11.10;;;7.40;;
13263;SDS011;6700;51.988;7.646;2023-03-01T08:08:42;9.50;;;6.27;;
13263;SDS011;6700;51.988;7.646;2023-03-01T08:11:10;10.97;;;7.20;;
13263;SDS011;6700;51.988;7.646;2023-03-01T08:13:38;11.57;;;7.30;;
13263;SDS011;6700;51.988;7.646;2023-03-01T08:16:12;9.40;;;7.07;;
13263;SDS011;6700;51.988;7.646;2023-03-01T08:18:41;9.00;;;6.80;;
13263;SDS011;6700;51.988;7.646;2023-03-01T08:21:10;9.60;;;6.83;;
13263;SDS011;6700;51.988;7.646;2023-03-01T08:23:38;8.63;;;6.97;;
13263;SDS011;6700;51.988;7.646;2023-03-01T08:26:16;9.83;;;7.27;;
13263;SDS011;6700;51.988;7.646;2023-03-01T08:28:45;7.80;;;6.37;;
13263;SDS011;6700;51.988;7.646;2023-03-01T08:31:18;8.03;;;6.73;;
13263;SDS011;6700;51.988;7.646;2023-03-01T08:34:04;9.17;;;6.63;;
13263;SDS011;6700;51.988;7.646;2023-03-01T08:36:34;10.20;;;6.90;;
13263;SDS011;6700;51.988;7.646;2023-03-01T08:39:03;13.23;;;6.13;;
13263;SDS011;6700;51.988;7.646;2023-03-01T08:41:31;8.87;;;6.50;;
13263;SDS011;6700;51.988;7.646;2023-03-01T08:43:58;7.73;;;6.93;;
13263;SDS011;6700;51.988;7.646;2023-03-01T08:46:29;11.00;;;6.03;;
13263;SDS011;6700;51.988;7.646;2023-03-01T08:48:57;10.67;;;7.10;;
13263;SDS011;6700;51.988;7.646;2023-03-01T08:51:25;7.60;;;6.77;;
13263;SDS011;6700;51.988;7.646;2023-03-01T08:53:52;11.90;;;6.90;;
13263;SDS011;6700;51.988;7.646;2023-03-01T08:56:19;9.20;;;6.30;;
13263;SDS011;6700;51.988;7.646;2023-03-01T08:58:47;9.77;;;7.23;;
13263;SDS011;6700;51.988;7.646;2023-03-01T09:01:15;10.90;;;7.27;;
13263;SDS011;6700;51.988;7.646;2023-03-01T09:03:44;8.67;;;7.67;;
13263;SDS011;6700;51.988;7.646;2023-03-01T09:06:11;10.07;;;7.23;;
13263;SDS011;6700;51.988;7.646;2023-03-01T09:08:40;11.97;;;7.57;;
13263;SDS011;6700;51.988;7.646;2023-03-01T09:11:09;10.50;;;7.10;;
13263;SDS011;6700;51.988;7.646;2023-03-01T09:13:39;10.03;;;7.00;;
13263;SDS011;6700;51.988;7.646;2023-03-01T09:16:10;8.97;;;7.47;;
13263;SDS011;6700;51.988;7.646;2023-03-01T09:18:37;8.63;;;7.17;;
13263;SDS011;6700;51.988;7.646;2023-03-01T09:21:05;8.97;;;6.97;;
13263;SDS011;6700;51.988;7.646;2023-03-01T09:23:38;9.40;;;7.70;;
13263;SDS011;6700;51.988;7.646;2023-03-01T09:26:11;11.60;;;6.83;;
13263;SDS011;6700;51.988;7.646;2023-03-01T09:28:42;9.47;;;7.10;;
13263;SDS011;6700;51.988;7.646;2023-03-01T09:31:10;8.77;;;7.20;;
13263;SDS011;6700;51.988;7.646;2023-03-01T09:33:39;10.53;;;7.13;;
13263;SDS011;6700;51.988;7.646;2023-03-01T09:36:08;8.80;;;6.50;;
13263;SDS011;6700;51.988;7.646;2023-03-01T09:38:39;9.73;;;6.67;;
13263;SDS011;6700;51.988;7.646;2023-03-01T09:41:09;7.97;;;6.47;;
13263;SDS011;6700;51.988;7.646;2023-03-01T09:43:48;8.63;;;6.60;;
13263;SDS011;6700;51.988;7.646;2023-03-01T09:46:22;10.03;;;6.83;;
13263;SDS011;6700;51.988;7.646;2023-03-01T09:48:52;9.33;;;6.80;;
13263;SDS011;6700;51.988;7.646;2023-03-01T09:51:25;10.30;;;7.43;;
13263;SDS011;6700;51.988;7.646;2023-03-01T09:53:57;10.93;;;7.03;;
13263;SDS011;6700;51.988;7.646;2023-03-01T10:04:57;12.90;;;6.53;;
13263;SDS011;6700;51.988;7.646;2023-03-01T10:10:37;8.70;;;6.37;;
13263;SDS011;6700;51.988;7.646;2023-03-01T10:13:16;12.13;;;7.87;;
13263;SDS011;6700;51.988;7.646;2023-03-01T10:15:56;9.67;;;6.90;;
13263;SDS011;6700;51.988;7.646;2023-03-01T10:18:28;8.70;;;6.47;;
13263;SDS011;6700;51.988;7.646;2023-03-01T10:20:59;10.40;;;6.87;;
13263;SDS011;6700;51.988;7.646;2023-03-01T10:23:28;7.97;;;6.80;;
13263;SDS011;6700;51.988;7.646;2023-03-01T10:28:46;10.90;;;7.63;;
13263;SDS011;6700;51.988;7.646;2023-03-01T10:31:17;9.73;;;7.00;;
13263;SDS011;6700;51.988;7.646;2023-03-01T10:33:49;12.40;;;7.10;;
13263;SDS011;6700;51.988;7.646;2023-03-01T10:36:21;9.80;;;6.90;;
13263;SDS011;6700;51.988;7.646;2023-03-01T10:38:54;9.77;;;7.53;;
13263;SDS011;6700;51.988;7.646;2023-03-01T10:41:23;10.47;;;6.97;;
13263;SDS011;6700;51.988;7.646;2023-03-01T10:43:54;9.47;;;7.37;;
13263;SDS011;6700;51.988;7.646;2023-03-01T10:49:19;9.13;;;6.93;;
13263;SDS011;6700;51.988;7.646;2023-03-01T10:51:49;9.80;;;7.07;;
13263;SDS011;6700;51.988;7.646;2023-03-01T10:54:18;10.40;;;6.83;;
13263;SDS011;6700;51.988;7.646;2023-03-01T10:59:28;11.83;;;7.37;;
13263;SDS011;6700;51.988;7.646;2023-03-01T11:07:52;12.27;;;7.23;;
13263;SDS011;6700;51.988;7.646;2023-03-01T11:10:25;9.07;;;6.97;;
13263;SDS011;6700;51.988;7.646;2023-03-01T11:13:06;8.43;;;7.30;;
13263;SDS011;6700;51.988;7.646;2023-03-01T11:15:39;11.00;;;7.50;;
13263;SDS011;6700;51.988;7.646;2023-03-01T11:18:15;11.13;;;7.73;;
13263;SDS011;6700;51.988;7.646;2023-03-01T11:21:02;8.17;;;6.70;;
13263;SDS011;6700;51.988;7.646;2023-03-01T11:23:30;8.07;;;6.43;;
13263;SDS011;6700;51.988;7.646;2023-03-01T11:26:00;10.53;;;7.17;;
13263;SDS011;6700;51.988;7.646;2023-03-01T11:28:30;9.33;;;6.47;;
13263;SDS011;6700;51.988;7.646;2023-03-01T11:31:02;8.60;;;6.97;;
13263;SDS011;6700;51.988;7.646;2023-03-01T11:33:42;8.87;;;7.40;;
13263;SDS011;6700;51.988;7.646;2023-03-01T11:36:34;9.90;;;7.63;;
13263;SDS011;6700;51.988;7.646;2023-03-01T11:39:38;10.37;;;7.10;;
13263;SDS011;6700;51.988;7.646;2023-03-01T11:45:22;10.23;;;8.10;;
13263;SDS011;6700;51.988;7.646;2023-03-01T11:48:14;9.23;;;7.53;;
13263;SDS011;6700;51.988;7.646;2023-03-01T11:51:20;12.47;;;7.87;;
13263;SDS011;6700;51.988;7.646;2023-03-01T11:54:33;9.00;;;7.10;;
13263;SDS011;6700;51.988;7.646;2023-03-01T11:57:04;8.73;;;6.63;;
13263;SDS011;6700;51.988;7.646;2023-03-01T12:00:17;9.70;;;7.27;;
13263;SDS011;6700;51.988;7.646;2023-03-01T12:25:57;7.80;;;6.00;;
13263;SDS011;6700;51.988;7.646;2023-03-01T12:28:39;7.30;;;5.77;;
13263;SDS011;6700;51.988;7.646;2023-03-01T12:33:47;7.33;;;6.00;;
13263;SDS011;6700;51.988;7.646;2023-03-01T12:39:35;8.60;;;6.87;;
13263;SDS011;6700;51.988;7.646;2023-03-01T12:45:24;7.87;;;6.17;;
13263;SDS011;6700;51.988;7.646;2023-03-01T12:48:27;6.20;;;5.17;;
13263;SDS011;6700;51.988;7.646;2023-03-01T12:51:07;6.97;;;5.57;;
13263;SDS011;6700;51.988;7.646;2023-03-01T12:53:44;7.77;;;5.77;;
13263;SDS011;6700;51.988;7.646;2023-03-01T12:56:15;8.07;;;4.43;;
13263;SDS011;6700;51.988;7.646;2023-03-01T12:58:51;7.20;;;5.70;;
13263;SDS011;6700;51.988;7.646;2023-03-01T13:01:39;6.73;;;5.67;;
13263;SDS011;6700;51.988;7.646;2023-03-01T13:04:40;6.47;;;4.77;;
13263;SDS011;6700;51.988;7.646;2023-03-01T13:10:14;6.63;;;5.17;;
13263;SDS011;6700;51.988;7.646;2023-03-01T13:12:47;6.83;;;4.87;;
13263;SDS011;6700;51.988;7.646;2023-03-01T13:23:10;6.37;;;4.83;;
13263;SDS011;6700;51.988;7.646;2023-03-01T13:26:25;5.30;;;4.70;;
13263;SDS011;6700;51.988;7.646;2023-03-01T13:33:49;6.00;;;4.63;;
13263;SDS011;6700;51.988;7.646;2023-03-01T13:41:59;9.43;;;5.53;;
13263;SDS011;6700;51.988;7.646;2023-03-01T13:44:32;7.67;;;5.60;;
13263;SDS011;6700;51.988;7.646;2023-03-01T13:49:52;6.80;;;5.37;;
13263;SDS011;6700;51.988;7.646;2023-03-01T13:52:29;5.97;;;4.83;;
13263;SDS011;6700;51.988;7.646;2023-03-01T13:55:15;7.53;;;5.40;;
13263;SDS011;6700;51.988;7.646;2023-03-01T13:57:45;6.37;;;4.97;;
13263;SDS011;6700;51.988;7.646;2023-03-01T14:03:13;7.57;;;5.30;;
13263;SDS011;6700;51.988;7.646;2023-03-01T14:05:43;7.00;;;6.13;;
13263;SDS011;6700;51.988;7.646;2023-03-01T14:08:41;6.60;;;5.10;;
13263;SDS011;6700;51.988;7.646;2023-03-01T14:20:16;7.73;;;5.77;;
13263;SDS011;6700;51.988;7.646;2023-03-01T14:23:01;8.87;;;5.63;;
13263;SDS011;6700;51.988;7.646;2023-03-01T14:25:35;10.03;;;7.20;;
13263;SDS011;6700;51.988;7.646;2023-03-01T14:30:54;7.07;;;5.60;;
13263;SDS011;6700;51.988;7.646;2023-03-01T14:33:24;7.10;;;5.13;;
13263;SDS011;6700;51.988;7.646;2023-03-01T14:38:32;6.63;;;5.10;;
13263;SDS011;6700;51.988;7.646;2023-03-01T14:41:08;5.63;;;4.87;;
13263;SDS011;6700;51.988;7.646;2023-03-01T14:43:37;8.80;;;4.97;;
13263;SDS011;6700;51.988;7.646;2023-03-01T14:46:16;8.33;;;5.27;;
13263;SDS011;6700;51.988;7.646;2023-03-01T14:49:04;7.07;;;5.33;;
13263;SDS011;6700;51.988;7.646;2023-03-01T14:51:39;8.17;;;4.80;;
13263;SDS011;6700;51.988;7.646;2023-03-01T14:56:58;4.80;;;4.33;;
13263;SDS011;6700;51.988;7.646;2023-03-01T14:59:26;6.37;;;4.63;;
13263;SDS011;6700;51.988;7.646;2023-03-01T15:01:55;6.40;;;5.37;;
13263;SDS011;6700;51.988;7.646;2023-03-01T15:04:24;6.53;;;4.93;;
13263;SDS011;6700;51.988;7.646;2023-03-01T15:06:54;6.33;;;4.90;;
13263;SDS011;6700;51.988;7.646;2023-03-01T15:09:31;5.73;;;5.07;;
13263;SDS011;6700;51.988;7.646;2023-03-01T15:12:00;6.60;;;4.63;;
13263;SDS011;6700;51.988;7.646;2023-03-01T15:14:47;5.97;;;4.87;;
13263;SDS011;6700;51.988;7.646;2023-03-01T15:19:58;7.30;;;5.17;;
13263;SDS011;6700;51.988;7.646;2023-03-01T15:22:25;7.17;;;4.87;;
13263;SDS011;6700;51.988;7.646;2023-03-01T15:24:53;6.17;;;4.93;;
13263;SDS011;6700;51.988;7.646;2023-03-01T15:27:24;5.03;;;4.33;;
13263;SDS011;6700;51.988;7.646;2023-03-01T15:29:53;5.97;;;4.50;;
13263;SDS011;6700;51.988;7.646;2023-03-01T15:35:00;6.73;;;4.73;;
13263;SDS011;6700;51.988;7.646;2023-03-01T15:37:48;6.67;;;4.53;;
13263;SDS011;6700;51.988;7.646;2023-03-01T15:40:28;7.33;;;4.70;;
13263;SDS011;6700;51.988;7.646;2023-03-01T15:43:03;5.30;;;4.23;;
13263;SDS011;6700;51.988;7.646;2023-03-01T15:45:34;5.53;;;4.53;;
13263;SDS011;6700;51.988;7.646;2023-03-01T15:48:04;6.30;;;3.90;;
13263;SDS011;6700;51.988;7.646;2023-03-01T15:50:41;4.50;;;3.97;;
13263;SDS011;6700;51.988;7.646;2023-03-01T15:53:13;8.23;;;4.43;;
13263;SDS011;6700;51.988;7.646;2023-03-01T15:55:41;7.80;;;4.17;;
13263;SDS011;6700;51.988;7.646;2023-03-01T16:00:37;6.13;;;4.40;;
13263;SDS011;6700;51.988;7.646;2023-03-01T16:03:23;6.17;;;4.77;;
13263;SDS011;6700;51.988;7.646;2023-03-01T16:05:50;4.93;;;4.20;;
13263;SDS011;6700;51.988;7.646;2023-03-01T16:08:17;10.03;;;4.53;;
13263;SDS011;6700;51.988;7.646;2023-03-01T16:10:44;6.13;;;3.80;;
13263;SDS011;6700;51.988;7.646;2023-03-01T16:13:12;5.37;;;3.77;;
13263;SDS011;6700;51.988;7.646;2023-03-01T16:15:39;14.73;;;6.30;;
13263;SDS011;6700;51.988;7.646;2023-03-01T16:18:06;11.37;;;7.70;;
13263;SDS011;6700;51.988;7.646;2023-03-01T16:20:36;6.83;;;5.40;;
13263;SDS011;6700;51.988;7.646;2023-03-01T16:23:05;7.07;;;4.17;;
13263;SDS011;6700;51.988;7.646;2023-03-01T16:25:33;6.20;;;3.80;;
13263;SDS011;6700;51.988;7.646;2023-03-01T16:28:01;5.70;;;4.20;;
13263;SDS011;6700;51.988;7.646;2023-03-01T16:30:31;5.33;;;4.33;;
13263;SDS011;6700;51.988;7.646;2023-03-01T16:32:57;5.30;;;3.87;;
13263;SDS011;6700;51.988;7.646;2023-03-01T16:35:25;31.67;;;17.33;;
13263;SDS011;6700;51.988;7.646;2023-03-01T16:37:51;6.60;;;4.30;;
13263;SDS011;6700;51.988;7.646;2023-03-01T16:40:22;6.37;;;3.60;;
13263;SDS011;6700;51.988;7.646;2023-03-01T16:42:52;6.60;;;4.47;;
13263;SDS011;6700;51.988;7.646;2023-03-01T16:45:21;4.83;;;3.80;;
13263;SDS011;6700;51.988;7.646;2023-03-01T16:47:50;6.03;;;4.43;;
13263;SDS011;6700;51.988;7.646;2023-03-01T16:50:21;5.43;;;3.80;;
13263;SDS011;6700;51.988;7.646;2023-03-01T16:52:48;5.20;;;3.10;;
13263;SDS011;6700;51.988;7.646;2023-03-01T16:55:15;5.77;;;3.83;;
13263;SDS011;6700;51.988;7.646;2023-03-01T16:57:42;4.90;;;3.30;;
13263;SDS011;6700;51.988;7.646;2023-03-01T17:00:10;5.53;;;3.87;;
13263;SDS011;6700;51.988;7.646;2023-03-01T17:02:39;6.47;;;3.80;;
13263;SDS011;6700;51.988;7.646;2023-03-01T17:05:07;4.23;;;3.80;;
13263;SDS011;6700;51.988;7.646;2023-03-01T17:07:36;5.00;;;3.80;;
13263;SDS011;6700;51.988;7.646;2023-03-01T17:10:03;6.27;;;4.03;;
13263;SDS011;6700;51.988;7.646;2023-03-01T17:12:34;5.40;;;4.30;;
13263;SDS011;6700;51.988;7.646;2023-03-01T17:15:01;5.50;;;3.57;;
13263;SDS011;6700;51.988;7.646;2023-03-01T17:17:29;4.13;;;3.63;;
13263;SDS011;6700;51.988;7.646;2023-03-01T17:19:56;5.40;;;3.53;;